Time;durP1;ratioP1;P1;durP2;ratioP2;P2;SDS_P1;SDS_P2;PMS_P1;PMS_P2;Temp;Humidity;BMP_temperature;BMP_pressure;BME280_temperature;BME280_humidity;BME280_pressure;Samples;Min_cycle;Max_cycle;Signal;HPM_P1;HPM_P2
2022/01/30 00:01:02;;;;;;;1.60;0.85;;;;;;;;;;5071611;28;20060;-70
2022/01/30 00:03:32;;;;;;;3.65;1.02;;;;;;;;;;5047677;28;20072;-68
2022/01/30 00:06:03;;;;;;;3.15;1.40;;;;;;;;;;5062287;28;20063;-69
2022/01/30 00:08:33;;;;;;;1.83;1.15;;;;;;;;;;5052903;28;20057;-68
2022/01/30 00:11:12;;;;;;;2.92;1.83;;;;;;;;;;5005376;28;20056;-68
2022/01/30 00:13:43;;;;;;;1.83;0.90;;;;;;;;;;5038405;28;20053;-69
2022/01/30 00:16:17;;;;;;;1.98;0.80;;;;;;;;;;5055561;28;20056;-68
2022/01/30 00:21:33;;;;;;;3.15;1.00;;;;;;;;;;5060780;28;20060;-69
2022/01/30 00:24:09;;;;;;;11.35;4.40;;;;;;;;;;5062010;28;20072;-69
2022/01/30 00:26:41;;;;;;;2.83;1.25;;;;;;;;;;5055938;28;20033;-68
2022/01/30 00:29:13;;;;;;;2.60;1.10;;;;;;;;;;5042620;28;20500;-68
2022/01/30 00:31:43;;;;;;;5.80;1.00;;;;;;;;;;5027940;28;20057;-68
2022/01/30 00:34:34;;;;;;;1.15;0.80;;;;;;;;;;5007118;28;20050;-68
2022/01/30 00:37:05;;;;;;;5.25;2.92;;;;;;;;;;4943056;28;20050;-68
2022/01/30 00:39:35;;;;;;;3.22;1.52;;;;;;;;;;4986030;28;20054;-67
2022/01/30 00:42:06;;;;;;;2.28;0.95;;;;;;;;;;4986444;28;20102;-67
2022/01/30 00:44:38;;;;;;;2.10;1.20;;;;;;;;;;4992191;28;20050;-68
2022/01/30 00:47:14;;;;;;;2.28;1.25;;;;;;;;;;4976058;28;20065;-68
2022/01/30 00:49:44;;;;;;;2.38;0.90;;;;;;;;;;4968538;28;20440;-67
2022/01/30 00:52:16;;;;;;;1.17;0.60;;;;;;;;;;4952536;28;20066;-67
2022/01/30 00:54:47;;;;;;;2.67;0.77;;;;;;;;;;4971917;28;20069;-68
2022/01/30 00:57:18;;;;;;;1.30;0.75;;;;;;;;;;4955863;28;20058;-69
2022/01/30 00:59:49;;;;;;;3.10;0.50;;;;;;;;;;4933770;29;20056;-68
2022/01/30 01:02:19;;;;;;;2.58;0.60;;;;;;;;;;4920389;28;20048;-67
2022/01/30 01:04:50;;;;;;;1.15;0.60;;;;;;;;;;4914576;29;20056;-68
2022/01/30 01:07:23;;;;;;;1.63;0.68;;;;;;;;;;4914425;29;20052;-69
2022/01/30 01:10:07;;;;;;;3.30;1.77;;;;;;;;;;4898651;29;20047;-67
2022/01/30 01:23:24;;;;;;;5.20;1.23;;;;;;;;;;4952099;28;20059;-67
2022/01/30 01:23:54;;;;;;;1.77;1.10;;;;;;;;;;4920616;28;20059;-68
2022/01/30 01:26:26;;;;;;;2.10;1.13;;;;;;;;;;4913888;29;20060;-68
2022/01/30 01:28:56;;;;;;;1.55;1.00;;;;;;;;;;4926948;28;20048;-68
2022/01/30 01:31:27;;;;;;;1.77;0.70;;;;;;;;;;4898611;29;20061;-67
2022/01/30 01:36:54;;;;;;;2.00;1.08;;;;;;;;;;4932968;29;20071;-67
2022/01/30 01:39:25;;;;;;;1.30;0.70;;;;;;;;;;4932966;28;20055;-69
2022/01/30 01:41:59;;;;;;;5.35;0.82;;;;;;;;;;4933283;29;20103;-67
2022/01/30 01:44:38;;;;;;;2.80;0.40;;;;;;;;;;4951851;28;20047;-67
2022/01/30 01:47:11;;;;;;;5.10;1.00;;;;;;;;;;4967459;28;20535;-68
2022/01/30 01:49:42;;;;;;;1.27;0.43;;;;;;;;;;4889924;29;20044;-67
2022/01/30 01:52:19;;;;;;;1.95;0.70;;;;;;;;;;4932122;28;20070;-68
2022/01/30 01:54:55;;;;;;;2.85;0.80;;;;;;;;;;4935735;28;20043;-67
2022/01/30 01:57:28;;;;;;;3.78;0.80;;;;;;;;;;4932303;28;20047;-67
2022/01/30 02:00:14;;;;;;;1.27;0.60;;;;;;;;;;4951399;29;20058;-67
2022/01/30 02:02:45;;;;;;;3.03;0.82;;;;;;;;;;4952070;28;20063;-68
2022/01/30 02:05:16;;;;;;;1.40;0.60;;;;;;;;;;4913701;29;20546;-68
2022/01/30 02:10:36;;;;;;;2.10;0.95;;;;;;;;;;4916488;29;20048;-67
2022/01/30 02:13:34;;;;;;;2.97;0.80;;;;;;;;;;4912926;29;20059;-68
2022/01/30 02:27:23;;;;;;;2.45;0.63;;;;;;;;;;4875718;29;20349;-67
2022/01/30 02:29:54;;;;;;;1.52;0.70;;;;;;;;;;4875252;29;20546;-68
2022/01/30 02:32:25;;;;;;;2.78;0.82;;;;;;;;;;4858620;29;20514;-67
2022/01/30 02:34:56;;;;;;;1.52;0.85;;;;;;;;;;4899133;29;20051;-67
2022/01/30 02:37:29;;;;;;;1.20;0.63;;;;;;;;;;4912966;29;20471;-68
2022/01/30 02:40:00;;;;;;;1.00;0.65;;;;;;;;;;4874209;29;20053;-67
2022/01/30 02:42:33;;;;;;;1.60;0.70;;;;;;;;;;4869457;29;20228;-67
2022/01/30 02:45:07;;;;;;;1.40;0.68;;;;;;;;;;4838391;29;20536;-67
2022/01/30 02:47:52;;;;;;;4.25;1.00;;;;;;;;;;4844228;29;20049;-69
2022/01/30 02:53:17;;;;;;;1.90;1.00;;;;;;;;;;4893653;29;20677;-67
2022/01/30 02:55:47;;;;;;;0.85;0.50;;;;;;;;;;4893911;29;20056;-67
2022/01/30 02:58:17;;;;;;;1.27;0.50;;;;;;;;;;4893434;29;20060;-67
2022/01/30 03:00:48;;;;;;;1.42;0.65;;;;;;;;;;4893831;29;20056;-68
2022/01/30 03:03:19;;;;;;;2.38;0.80;;;;;;;;;;4862658;29;20053;-67
2022/01/30 03:05:50;;;;;;;2.08;0.60;;;;;;;;;;4893622;29;20044;-67
2022/01/30 03:08:20;;;;;;;2.30;0.60;;;;;;;;;;4896708;29;20072;-66
2022/01/30 03:10:51;;;;;;;2.65;0.85;;;;;;;;;;4912391;29;20056;-66
2022/01/30 03:13:21;;;;;;;0.95;0.40;;;;;;;;;;4912173;29;20066;-66
2022/01/30 03:15:52;;;;;;;1.60;0.80;;;;;;;;;;4928424;29;20055;-68
2022/01/30 03:18:22;;;;;;;3.35;0.80;;;;;;;;;;4961897;28;20084;-66
2022/01/30 03:20:53;;;;;;;4.22;0.90;;;;;;;;;;4950302;29;20055;-66
2022/01/30 03:23:25;;;;;;;2.80;0.50;;;;;;;;;;4932996;29;20059;-66
2022/01/30 03:25:59;;;;;;;4.95;0.60;;;;;;;;;;4979547;28;20058;-66
2022/01/30 03:28:52;;;;;;;1.35;0.90;;;;;;;;;;4999464;28;20413;-66
2022/01/30 03:31:26;;;;;;;7.25;0.85;;;;;;;;;;4987097;28;20418;-67
2022/01/30 03:33:57;;;;;;;2.53;0.80;;;;;;;;;;4956714;28;20050;-66
2022/01/30 03:36:37;;;;;;;2.25;1.10;;;;;;;;;;5008218;28;20417;-66
2022/01/30 03:39:08;;;;;;;3.78;0.68;;;;;;;;;;5008382;28;20054;-66
2022/01/30 03:41:39;;;;;;;1.50;0.50;;;;;;;;;;4959844;28;20050;-67
2022/01/30 03:44:12;;;;;;;0.90;0.50;;;;;;;;;;5008567;28;20054;-66
2022/01/30 03:46:43;;;;;;;1.27;0.60;;;;;;;;;;4992253;28;20054;-66
2022/01/30 03:49:26;;;;;;;2.42;0.70;;;;;;;;;;4988843;28;20054;-66
2022/01/30 03:51:57;;;;;;;3.95;0.80;;;;;;;;;;4974761;28;20042;-67
2022/01/30 03:54:33;;;;;;;3.33;0.73;;;;;;;;;;4992862;28;20055;-66
2022/01/30 03:57:05;;;;;;;2.47;0.82;;;;;;;;;;4953625;28;20467;-66
2022/01/30 03:59:37;;;;;;;3.83;0.85;;;;;;;;;;4953642;28;20539;-66
2022/01/30 04:02:08;;;;;;;1.55;0.70;;;;;;;;;;4953894;28;20047;-66
2022/01/30 04:04:39;;;;;;;2.88;1.48;;;;;;;;;;4953832;28;20070;-66
2022/01/30 04:07:11;;;;;;;2.80;0.70;;;;;;;;;;4971488;28;20430;-66
2022/01/30 04:09:58;;;;;;;1.55;0.90;;;;;;;;;;4989878;28;20572;-66
2022/01/30 04:12:58;;;;;;;1.27;0.50;;;;;;;;;;4992248;28;20050;-66
2022/01/30 04:15:54;;;;;;;1.98;0.88;;;;;;;;;;4909198;29;20052;-66
2022/01/30 04:18:40;;;;;;;4.60;0.80;;;;;;;;;;4934035;29;20056;-66
2022/01/30 04:21:28;;;;;;;2.92;0.68;;;;;;;;;;4934650;29;20539;-66
2022/01/30 04:24:30;;;;;;;1.60;0.70;;;;;;;;;;4915937;29;20056;-66
2022/01/30 04:27:21;;;;;;;4.32;0.90;;;;;;;;;;4914665;29;20060;-66
2022/01/30 04:30:23;;;;;;;1.42;1.02;;;;;;;;;;4878078;29;20442;-67
2022/01/30 04:33:09;;;;;;;6.35;1.00;;;;;;;;;;4877744;29;20514;-66
2022/01/30 04:36:08;;;;;;;1.77;0.70;;;;;;;;;;4896745;29;20064;-66
2022/01/30 05:06:31;;;;;;;1.65;0.90;;;;;;;;;;4928182;29;20067;-67
2022/01/30 05:09:15;;;;;;;1.67;0.73;;;;;;;;;;4941842;29;20543;-66
2022/01/30 05:12:14;;;;;;;2.20;0.73;;;;;;;;;;4915510;29;20048;-69
2022/01/30 05:15:19;;;;;;;4.28;0.80;;;;;;;;;;4908865;29;20056;-66
2022/01/30 05:18:21;;;;;;;1.85;0.73;;;;;;;;;;4912939;29;20056;-66
2022/01/30 05:21:19;;;;;;;1.20;0.65;;;;;;;;;;4949710;28;20058;-66
2022/01/30 05:24:10;;;;;;;1.33;0.80;;;;;;;;;;4927724;29;20056;-67
2022/01/30 05:27:05;;;;;;;1.65;0.88;;;;;;;;;;4890035;29;20056;-67
2022/01/30 05:29:45;;;;;;;7.38;1.20;;;;;;;;;;4905464;29;20060;-67
2022/01/30 05:32:16;;;;;;;2.42;0.93;;;;;;;;;;4890669;29;20417;-67
2022/01/30 05:35:10;;;;;;;5.13;0.85;;;;;;;;;;4889961;29;20064;-67
2022/01/30 05:38:12;;;;;;;3.25;0.80;;;;;;;;;;4901503;29;20053;-66
2022/01/30 05:41:18;;;;;;;3.47;1.10;;;;;;;;;;4852372;29;20069;-66
2022/01/30 05:44:22;;;;;;;4.85;0.85;;;;;;;;;;4897224;29;20052;-66
2022/01/30 05:47:24;;;;;;;1.67;0.90;;;;;;;;;;4874213;29;20079;-67
2022/01/30 05:50:11;;;;;;;4.88;1.63;;;;;;;;;;4847072;29;20103;-66
2022/01/30 05:52:52;;;;;;;1.63;0.90;;;;;;;;;;4876951;29;20057;-67
2022/01/30 05:55:41;;;;;;;3.78;0.90;;;;;;;;;;4887319;29;20413;-67
2022/01/30 05:58:10;;;;;;;2.55;0.80;;;;;;;;;;4939592;29;20047;-66
2022/01/30 06:00:58;;;;;;;2.50;0.93;;;;;;;;;;4927496;29;20052;-67
2022/01/30 06:03:29;;;;;;;2.30;0.90;;;;;;;;;;4914649;29;20052;-66
2022/01/30 06:06:02;;;;;;;2.15;1.20;;;;;;;;;;4914536;29;20416;-67
2022/01/30 06:08:58;;;;;;;2.20;0.90;;;;;;;;;;4914354;29;20048;-68
2022/01/30 06:11:29;;;;;;;2.25;0.80;;;;;;;;;;4901513;29;20056;-67
2022/01/30 06:13:59;;;;;;;4.13;1.13;;;;;;;;;;4933506;29;20424;-66
2022/01/30 06:16:30;;;;;;;1.52;0.52;;;;;;;;;;4933062;29;20063;-68
2022/01/30 06:19:22;;;;;;;6.25;1.13;;;;;;;;;;4914109;29;20055;-66
2022/01/30 06:22:12;;;;;;;1.52;0.90;;;;;;;;;;4839812;29;20065;-66
2022/01/30 06:25:09;;;;;;;2.10;1.17;;;;;;;;;;4872574;29;20057;-66
2022/01/30 06:28:15;;;;;;;1.95;0.93;;;;;;;;;;4854688;29;20534;-67
2022/01/30 06:30:52;;;;;;;1.98;0.70;;;;;;;;;;4888696;29;20056;-67
2022/01/30 06:33:40;;;;;;;3.63;0.80;;;;;;;;;;4895834;29;20061;-66
2022/01/30 06:36:17;;;;;;;3.03;0.90;;;;;;;;;;4880438;29;20531;-66
2022/01/30 06:39:06;;;;;;;4.50;0.90;;;;;;;;;;4895503;29;20086;-67
2022/01/30 06:42:03;;;;;;;1.90;0.98;;;;;;;;;;4869472;29;20544;-68
2022/01/30 06:44:51;;;;;;;4.18;0.70;;;;;;;;;;4895816;29;20061;-67
2022/01/30 06:47:43;;;;;;;1.98;1.08;;;;;;;;;;4914459;29;20060;-67
2022/01/30 06:50:51;;;;;;;2.35;0.90;;;;;;;;;;4876335;29;20053;-67
2022/01/30 06:53:54;;;;;;;4.93;1.00;;;;;;;;;;4820729;29;20054;-67
2022/01/30 06:56:45;;;;;;;3.22;1.15;;;;;;;;;;4864894;29;20048;-67
2022/01/30 06:59:46;;;;;;;5.10;0.90;;;;;;;;;;4910597;29;20056;-67
2022/01/30 07:02:35;;;;;;;3.72;1.00;;;;;;;;;;4972545;28;20058;-68
2022/01/30 07:05:32;;;;;;;4.93;1.10;;;;;;;;;;4988266;28;20054;-67
2022/01/30 07:08:12;;;;;;;2.50;1.00;;;;;;;;;;4970683;28;20054;-67
2022/01/30 07:10:42;;;;;;;1.83;0.80;;;;;;;;;;4951132;29;20058;-66
2022/01/30 07:13:12;;;;;;;6.43;1.08;;;;;;;;;;4919679;29;20059;-66
2022/01/30 07:15:43;;;;;;;3.85;1.23;;;;;;;;;;4951701;29;20051;-67
2022/01/30 07:18:14;;;;;;;3.58;1.17;;;;;;;;;;4951533;29;20051;-67
2022/01/30 07:20:44;;;;;;;3.65;1.25;;;;;;;;;;4954154;28;20051;-66
2022/01/30 07:23:14;;;;;;;2.40;1.13;;;;;;;;;;4974323;28;20054;-66
2022/01/30 07:25:44;;;;;;;6.32;1.35;;;;;;;;;;4989982;28;20054;-66
2022/01/30 07:28:15;;;;;;;2.80;1.13;;;;;;;;;;4989900;28;20098;-66
2022/01/30 07:30:45;;;;;;;3.33;1.00;;;;;;;;;;5045447;28;20448;-66
2022/01/30 07:33:16;;;;;;;3.90;1.77;;;;;;;;;;5049233;28;20413;-67
2022/01/30 07:35:46;;;;;;;3.90;1.35;;;;;;;;;;5016380;28;20057;-67
2022/01/30 07:38:17;;;;;;;5.35;0.98;;;;;;;;;;5050500;28;20065;-66
2022/01/30 07:40:49;;;;;;;3.72;1.48;;;;;;;;;;5089245;28;20043;-66
2022/01/30 07:43:20;;;;;;;3.25;1.10;;;;;;;;;;5089124;28;20052;-66
2022/01/30 07:45:59;;;;;;;7.30;1.35;;;;;;;;;;5048222;28;20048;-67
2022/01/30 07:48:30;;;;;;;2.67;1.10;;;;;;;;;;5054394;28;20055;-66
2022/01/30 07:51:00;;;;;;;3.15;1.02;;;;;;;;;;5088888;28;20056;-67
2022/01/30 07:53:31;;;;;;;4.22;0.90;;;;;;;;;;5089085;28;20503;-67
2022/01/30 07:56:01;;;;;;;1.60;0.80;;;;;;;;;;5022867;28;20052;-66
2022/01/30 07:58:31;;;;;;;2.22;1.02;;;;;;;;;;5088926;28;20052;-67
2022/01/30 08:01:02;;;;;;;2.67;1.40;;;;;;;;;;5072253;28;20055;-67
2022/01/30 08:03:33;;;;;;;2.33;0.82;;;;;;;;;;5088896;28;20052;-66
2022/01/30 08:06:03;;;;;;;4.10;1.10;;;;;;;;;;5088713;28;20052;-68
2022/01/30 08:08:34;;;;;;;4.43;0.95;;;;;;;;;;5088826;28;20055;-67
2022/01/30 08:11:04;;;;;;;1.60;0.80;;;;;;;;;;5088554;28;20052;-67
2022/01/30 08:13:35;;;;;;;1.75;0.98;;;;;;;;;;5054863;28;20581;-67
2022/01/30 08:16:05;;;;;;;2.70;1.20;;;;;;;;;;5088668;28;20052;-64
2022/01/30 08:18:37;;;;;;;1.45;0.73;;;;;;;;;;5048220;28;20056;-67
2022/01/30 08:21:07;;;;;;;1.63;0.90;;;;;;;;;;5032181;28;20061;-67
2022/01/30 08:23:38;;;;;;;1.95;0.82;;;;;;;;;;5018346;28;20061;-67
2022/01/30 08:26:08;;;;;;;4.18;1.00;;;;;;;;;;4980317;28;20473;-67
2022/01/30 08:28:38;;;;;;;1.98;1.00;;;;;;;;;;4996201;28;20065;-66
2022/01/30 08:31:08;;;;;;;3.03;0.98;;;;;;;;;;4969316;28;20051;-67
2022/01/30 08:33:39;;;;;;;3.53;0.90;;;;;;;;;;4949962;29;20063;-67
2022/01/30 08:36:09;;;;;;;2.75;0.80;;;;;;;;;;4950235;29;20067;-67
2022/01/30 08:38:39;;;;;;;7.20;1.25;;;;;;;;;;4949788;28;20518;-67
2022/01/30 08:41:09;;;;;;;2.28;1.10;;;;;;;;;;4950853;28;20059;-66
2022/01/30 08:43:39;;;;;;;3.38;0.77;;;;;;;;;;4950228;29;20047;-66
2022/01/30 08:46:09;;;;;;;3.83;1.00;;;;;;;;;;4930707;29;20056;-66
2022/01/30 08:48:40;;;;;;;1.90;0.95;;;;;;;;;;4930937;29;20075;-67
2022/01/30 08:51:10;;;;;;;2.00;1.05;;;;;;;;;;4915474;29;20060;-67
2022/01/30 08:53:41;;;;;;;1.25;0.73;;;;;;;;;;4930778;29;20058;-68
2022/01/30 08:56:12;;;;;;;6.28;1.40;;;;;;;;;;4949414;28;20396;-67
2022/01/30 08:58:43;;;;;;;3.55;1.08;;;;;;;;;;4968785;28;20066;-67
2022/01/30 09:01:13;;;;;;;2.95;1.20;;;;;;;;;;4969345;28;20054;-67
2022/01/30 09:03:44;;;;;;;2.85;0.95;;;;;;;;;;4968648;28;20062;-66
2022/01/30 09:06:14;;;;;;;3.10;1.20;;;;;;;;;;4969479;28;20066;-67
2022/01/30 09:08:44;;;;;;;2.40;1.05;;;;;;;;;;4997616;28;20560;-67
2022/01/30 09:11:15;;;;;;;5.57;1.23;;;;;;;;;;5014247;28;20048;-66
2022/01/30 09:13:45;;;;;;;1.92;0.80;;;;;;;;;;5067569;28;20527;-66
2022/01/30 09:16:15;;;;;;;3.22;1.08;;;;;;;;;;5018109;28;20464;-67
2022/01/30 09:18:45;;;;;;;3.47;1.55;;;;;;;;;;5067577;28;20103;-66
2022/01/30 09:21:16;;;;;;;8.95;1.30;;;;;;;;;;5047516;28;20057;-68
2022/01/30 09:23:46;;;;;;;4.72;1.30;;;;;;;;;;5048216;28;20512;-66
2022/01/30 09:26:16;;;;;;;4.78;0.93;;;;;;;;;;5018341;28;20086;-66
2022/01/30 09:28:47;;;;;;;5.70;1.20;;;;;;;;;;5051284;28;20057;-67
2022/01/30 09:31:18;;;;;;;5.47;1.00;;;;;;;;;;5051489;28;20044;-66
2022/01/30 09:33:48;;;;;;;5.15;1.02;;;;;;;;;;5051467;28;20061;-67
2022/01/30 09:36:19;;;;;;;2.10;1.02;;;;;;;;;;5051513;28;20045;-67
2022/01/30 09:38:52;;;;;;;9.02;1.35;;;;;;;;;;4994529;28;20076;-68
2022/01/30 09:41:25;;;;;;;6.63;1.45;;;;;;;;;;5031432;28;20064;-67
2022/01/30 09:43:57;;;;;;;5.18;1.75;;;;;;;;;;5003669;28;20910;-67
2022/01/30 09:46:30;;;;;;;2.55;1.13;;;;;;;;;;5018563;28;20083;-67
2022/01/30 09:49:00;;;;;;;2.67;1.40;;;;;;;;;;5034583;28;20067;-67
2022/01/30 09:51:31;;;;;;;2.35;1.15;;;;;;;;;;5030864;28;20050;-67
2022/01/30 09:54:05;;;;;;;2.92;1.23;;;;;;;;;;4959933;28;20081;-66
2022/01/30 09:56:36;;;;;;;5.88;1.15;;;;;;;;;;4991791;28;20055;-67
2022/01/30 09:59:07;;;;;;;4.07;1.20;;;;;;;;;;4966683;28;20046;-67
2022/01/30 10:01:37;;;;;;;3.00;1.20;;;;;;;;;;4959776;28;20417;-68
2022/01/30 10:04:08;;;;;;;3.63;1.20;;;;;;;;;;4991353;28;20058;-67
2022/01/30 10:06:59;;;;;;;2.10;1.00;;;;;;;;;;4991613;28;20065;-67
2022/01/30 10:09:34;;;;;;;4.55;1.10;;;;;;;;;;4959119;28;20094;-67
2022/01/30 10:12:15;;;;;;;3.90;1.10;;;;;;;;;;4991345;28;20054;-68
2022/01/30 10:14:53;;;;;;;3.70;1.00;;;;;;;;;;4991492;28;20422;-67
2022/01/30 10:17:32;;;;;;;2.20;0.80;;;;;;;;;;5026741;28;20076;-68
2022/01/30 10:20:26;;;;;;;3.97;1.17;;;;;;;;;;5030879;28;20540;-67
2022/01/30 10:23:03;;;;;;;1.60;0.80;;;;;;;;;;5030464;28;20053;-68
2022/01/30 10:25:49;;;;;;;5.10;1.00;;;;;;;;;;5030591;28;20061;-68
2022/01/30 10:28:22;;;;;;;1.35;0.90;;;;;;;;;;5030643;28;20057;-67
2022/01/30 10:31:01;;;;;;;4.68;0.90;;;;;;;;;;5041783;28;20526;-68
2022/01/30 10:33:51;;;;;;;3.28;0.82;;;;;;;;;;5083339;28;20048;-68
2022/01/30 10:36:25;;;;;;;2.38;1.08;;;;;;;;;;5080383;28;20058;-69
2022/01/30 10:39:11;;;;;;;4.20;1.70;;;;;;;;;;5110651;28;20055;-69
2022/01/30 10:41:45;;;;;;;24.45;10.73;;;;;;;;;;5094251;28;20590;-69
2022/01/30 10:44:19;;;;;;;3.58;0.77;;;;;;;;;;5110723;28;20035;-70
2022/01/30 10:46:54;;;;;;;3.72;0.75;;;;;;;;;;5110688;28;20051;-69
2022/01/30 10:49:24;;;;;;;3.70;0.80;;;;;;;;;;5110597;28;20043;-70
2022/01/30 10:51:56;;;;;;;1.52;0.73;;;;;;;;;;5110781;28;20055;-70
2022/01/30 10:54:32;;;;;;;2.55;0.50;;;;;;;;;;5072867;28;20520;-69
2022/01/30 10:57:08;;;;;;;1.73;0.40;;;;;;;;;;5090201;28;20055;-69
2022/01/30 10:59:52;;;;;;;4.03;0.70;;;;;;;;;;5090010;28;20062;-69
2022/01/30 11:02:24;;;;;;;1.30;0.70;;;;;;;;;;5089996;28;20503;-69
2022/01/30 11:05:09;;;;;;;1.75;0.30;;;;;;;;;;5089707;28;20444;-68
2022/01/30 11:07:41;;;;;;;4.03;0.40;;;;;;;;;;5090091;28;20094;-69
2022/01/30 11:10:22;;;;;;;1.27;0.57;;;;;;;;;;5058940;28;20056;-69
2022/01/30 11:13:07;;;;;;;0.52;0.38;;;;;;;;;;5115126;27;20040;-70
2022/01/30 11:15:43;;;;;;;;;;;;;;;;;;5133681;27;20046;-70
2022/01/30 11:18:14;;;;;;;0.70;0.20;;;;;;;;;;5132870;27;20370;-71
2022/01/30 11:20:46;;;;;;;1.83;0.73;;;;;;;;;;5079928;27;20058;-71
2022/01/30 11:23:18;;;;;;;0.85;0.40;;;;;;;;;;5080396;27;20054;-70
2022/01/30 11:25:48;;;;;;;2.95;0.40;;;;;;;;;;5096367;27;20498;-70
2022/01/30 11:28:20;;;;;;;1.90;1.20;;;;;;;;;;5132497;27;20062;-69
2022/01/30 11:30:52;;;;;;;0.70;0.40;;;;;;;;;;5068932;28;20059;-69
2022/01/30 11:33:23;;;;;;;0.60;0.30;;;;;;;;;;5036359;28;20057;-69
2022/01/30 11:35:53;;;;;;;0.63;0.32;;;;;;;;;;5068993;28;20053;-70
2022/01/30 11:38:24;;;;;;;0.75;0.50;;;;;;;;;;5052587;28;20064;-70
2022/01/30 11:41:11;;;;;;;0.90;0.30;;;;;;;;;;5050515;28;20059;-69
2022/01/30 11:44:01;;;;;;;0.82;0.30;;;;;;;;;;5028855;28;20061;-69
2022/01/30 11:46:32;;;;;;;0.75;0.30;;;;;;;;;;5028473;28;20057;-71
2022/01/30 11:49:14;;;;;;;0.52;0.40;;;;;;;;;;5008994;28;20060;-69
2022/01/30 11:51:56;;;;;;;1.05;0.40;;;;;;;;;;5009094;28;20057;-71
2022/01/30 11:54:50;;;;;;;1.33;0.60;;;;;;;;;;4976560;28;20058;-70
2022/01/30 11:57:23;;;;;;;2.63;0.40;;;;;;;;;;5009213;28;20509;-70
2022/01/30 11:59:56;;;;;;;1.25;0.40;;;;;;;;;;4965830;28;20047;-69
2022/01/30 12:02:36;;;;;;;1.50;0.98;;;;;;;;;;5017156;28;20057;-70
2022/01/30 12:05:10;;;;;;;1.75;0.40;;;;;;;;;;5011289;28;20053;-70
2022/01/30 12:07:46;;;;;;;0.38;0.30;;;;;;;;;;5005616;28;20061;-69
2022/01/30 12:10:16;;;;;;;1.70;0.30;;;;;;;;;;5048301;28;20053;-70
2022/01/30 12:13:06;;;;;;;2.45;0.73;;;;;;;;;;5014062;28;20113;-70
2022/01/30 12:15:44;;;;;;;0.32;0.30;;;;;;;;;;5036941;28;20060;-74
2022/01/30 12:18:39;;;;;;;0.35;0.30;;;;;;;;;;5037561;28;20048;-71
2022/01/30 12:21:16;;;;;;;1.77;0.98;;;;;;;;;;5036009;28;20053;-71
2022/01/30 12:23:46;;;;;;;2.30;1.10;;;;;;;;;;5068572;28;20055;-71
2022/01/30 12:26:19;;;;;;;0.50;0.40;;;;;;;;;;5068526;28;20059;-69
2022/01/30 12:28:54;;;;;;;2.22;0.38;;;;;;;;;;5051477;28;20432;-71
2022/01/30 12:31:34;;;;;;;2.85;0.90;;;;;;;;;;5008515;28;20053;-70
2022/01/30 12:34:15;;;;;;;3.08;2.17;;;;;;;;;;4992354;28;20065;-71
2022/01/30 12:36:55;;;;;;;2.58;1.70;;;;;;;;;;5008301;28;20057;-70
2022/01/30 12:39:26;;;;;;;1.73;0.85;;;;;;;;;;5005802;28;20053;-71
2022/01/30 12:41:56;;;;;;;1.52;0.38;;;;;;;;;;5036790;28;20077;-73
2022/01/30 12:44:30;;;;;;;1.05;0.80;;;;;;;;;;4992839;28;20095;-72
2022/01/30 12:47:01;;;;;;;0.85;0.40;;;;;;;;;;5013814;28;20061;-71
2022/01/30 12:49:39;;;;;;;7.80;0.88;;;;;;;;;;5048326;28;20501;-71
2022/01/30 12:52:20;;;;;;;0.50;0.32;;;;;;;;;;5005403;28;20056;-70
2022/01/30 12:54:54;;;;;;;4.28;0.40;;;;;;;;;;5068422;28;20076;-71
2022/01/30 12:57:26;;;;;;;0.65;0.30;;;;;;;;;;5030549;28;20044;-69
2022/01/30 12:59:59;;;;;;;0.20;0.20;;;;;;;;;;4991882;28;20061;-71
2022/01/30 13:02:33;;;;;;;1.40;0.22;;;;;;;;;;5012237;28;20061;-71
2022/01/30 13:05:09;;;;;;;0.30;0.22;;;;;;;;;;4996406;28;20441;-70
2022/01/30 13:07:50;;;;;;;2.15;0.70;;;;;;;;;;5012073;28;20053;-69
2022/01/30 13:10:21;;;;;;;3.25;0.50;;;;;;;;;;4963565;28;20054;-69
2022/01/30 13:12:54;;;;;;;1.80;0.60;;;;;;;;;;4995331;28;20058;-69
2022/01/30 13:15:27;;;;;;;1.95;0.40;;;;;;;;;;4991838;28;20046;-70
2022/01/30 13:18:00;;;;;;;0.85;0.40;;;;;;;;;;4975705;28;20159;-70
2022/01/30 13:20:31;;;;;;;1.60;0.50;;;;;;;;;;4976517;28;20065;-70
2022/01/30 13:23:02;;;;;;;1.48;0.70;;;;;;;;;;4992128;28;20054;-69
2022/01/30 13:25:32;;;;;;;2.78;0.45;;;;;;;;;;4992228;28;20450;-70
2022/01/30 13:28:02;;;;;;;0.75;0.40;;;;;;;;;;4992218;28;20055;-70
2022/01/30 13:30:32;;;;;;;11.77;1.05;;;;;;;;;;4992286;28;20093;-71
2022/01/30 13:33:03;;;;;;;1.88;0.68;;;;;;;;;;4992246;28;20395;-69
2022/01/30 13:35:34;;;;;;;0.77;0.40;;;;;;;;;;4930462;28;20058;-70
2022/01/30 13:38:06;;;;;;;0.28;0.20;;;;;;;;;;4999213;28;20054;-69
2022/01/30 13:40:48;;;;;;;1.20;1.10;;;;;;;;;;5011503;28;20096;-69
2022/01/30 13:43:25;;;;;;;0.95;0.30;;;;;;;;;;5011493;28;20062;-71
2022/01/30 13:48:44;;;;;;;1.27;0.30;;;;;;;;;;5027820;28;20057;-69
2022/01/30 13:51:21;;;;;;;0.68;0.40;;;;;;;;;;5014469;28;20049;-69
2022/01/30 13:54:12;;;;;;;6.68;5.20;;;;;;;;;;5034986;28;20060;-69
2022/01/30 13:56:42;;;;;;;1.10;0.50;;;;;;;;;;5111728;28;20071;-70
2022/01/30 13:59:27;;;;;;;1.20;0.30;;;;;;;;;;5078091;28;20066;-70
2022/01/30 14:02:03;;;;;;;1.63;0.80;;;;;;;;;;5114020;28;20035;-70
2022/01/30 14:04:36;;;;;;;0.95;0.50;;;;;;;;;;5114157;28;20051;-71
2022/01/30 14:07:27;;;;;;;8.98;4.18;;;;;;;;;;5077834;28;20503;-72
2022/01/30 14:10:07;;;;;;;0.90;0.57;;;;;;;;;;5113329;28;20399;-70
2022/01/30 14:12:39;;;;;;;1.17;0.80;;;;;;;;;;5029890;28;20721;-69
2022/01/30 14:15:12;;;;;;;3.13;0.60;;;;;;;;;;5113756;28;20047;-70
2022/01/30 14:17:43;;;;;;;0.38;0.30;;;;;;;;;;5113851;28;20039;-70
2022/01/30 14:20:13;;;;;;;2.50;0.40;;;;;;;;;;5113544;28;20054;-71
2022/01/30 14:23:04;;;;;;;0.70;0.50;;;;;;;;;;5113628;28;20051;-72
2022/01/30 14:25:35;;;;;;;1.40;0.40;;;;;;;;;;5096709;28;20395;-70
2022/01/30 14:28:23;;;;;;;0.90;0.73;;;;;;;;;;5113384;28;20051;-70
2022/01/30 14:30:56;;;;;;;0.50;0.40;;;;;;;;;;5113413;28;20039;-70
2022/01/30 14:33:33;;;;;;;2.40;0.30;;;;;;;;;;5069933;28;20056;-69
2022/01/30 14:36:06;;;;;;;0.70;0.20;;;;;;;;;;5020720;28;20056;-69
2022/01/30 14:38:43;;;;;;;0.40;0.30;;;;;;;;;;5036329;28;20056;-70
2022/01/30 14:41:13;;;;;;;3.05;1.75;;;;;;;;;;5070205;28;20084;-69
2022/01/30 14:43:44;;;;;;;1.45;1.15;;;;;;;;;;5036753;28;21205;-69
2022/01/30 14:46:14;;;;;;;2.65;1.40;;;;;;;;;;5070179;28;20045;-69
2022/01/30 14:48:46;;;;;;;1.05;0.60;;;;;;;;;;5070201;28;20053;-69
2022/01/30 14:51:17;;;;;;;6.93;0.43;;;;;;;;;;5070047;28;20467;-69
2022/01/30 14:53:47;;;;;;;0.38;0.30;;;;;;;;;;5069982;28;20063;-69
2022/01/30 14:56:17;;;;;;;1.13;0.30;;;;;;;;;;5070144;28;20044;-68
2022/01/30 14:58:48;;;;;;;1.00;0.32;;;;;;;;;;5070002;28;20060;-68
2022/01/30 15:01:19;;;;;;;0.63;0.38;;;;;;;;;;5069888;28;20052;-69
2022/01/30 15:03:49;;;;;;;2.25;0.60;;;;;;;;;;5069359;28;20067;-69
2022/01/30 15:06:19;;;;;;;0.75;0.40;;;;;;;;;;5037419;28;20119;-69
2022/01/30 15:08:50;;;;;;;0.52;0.30;;;;;;;;;;5069523;28;20059;-69
2022/01/30 15:11:21;;;;;;;0.88;0.50;;;;;;;;;;5061663;28;20123;-69
2022/01/30 15:13:51;;;;;;;1.23;0.40;;;;;;;;;;5029233;28;20057;-69
2022/01/30 15:19:21;;;;;;;0.30;0.30;;;;;;;;;;4990524;28;20105;-69
2022/01/30 15:21:52;;;;;;;0.70;0.60;;;;;;;;;;4956983;28;20046;-69
2022/01/30 15:24:23;;;;;;;0.40;0.28;;;;;;;;;;4990153;28;20065;-70
2022/01/30 15:26:54;;;;;;;0.82;0.50;;;;;;;;;;4990092;28;20793;-70
2022/01/30 15:29:25;;;;;;;0.40;0.35;;;;;;;;;;4957646;28;20051;-69
2022/01/30 15:31:55;;;;;;;0.40;0.25;;;;;;;;;;4989851;28;20089;-69
2022/01/30 15:34:25;;;;;;;0.60;0.40;;;;;;;;;;4989934;28;20054;-69
2022/01/30 15:36:55;;;;;;;0.98;0.43;;;;;;;;;;4941231;28;20434;-69
2022/01/30 15:39:26;;;;;;;0.98;0.30;;;;;;;;;;4941429;28;20059;-69
2022/01/30 15:42:10;;;;;;;;;;;;;;;;;;4990070;28;20054;-69
2022/01/30 15:50:16;;;;;;;0.73;0.43;;;;;;;;;;4986124;28;20123;-69
2022/01/30 15:52:48;;;;;;;0.30;0.20;;;;;;;;;;4989392;28;20097;-71
2022/01/30 15:55:19;;;;;;;1.60;0.77;;;;;;;;;;5009615;28;20416;-70
2022/01/30 15:57:53;;;;;;;0.63;0.40;;;;;;;;;;5068467;28;20053;-69
2022/01/30 16:00:23;;;;;;;0.93;0.30;;;;;;;;;;5068833;28;20060;-69
2022/01/30 16:02:54;;;;;;;0.85;0.70;;;;;;;;;;5068455;28;20576;-69
2022/01/30 16:05:25;;;;;;;1.75;0.50;;;;;;;;;;5035434;28;20056;-69
2022/01/30 16:07:56;;;;;;;0.85;0.22;;;;;;;;;;5035240;28;20527;-69
2022/01/30 16:10:33;;;;;;;0.77;0.38;;;;;;;;;;4998807;28;20052;-69
2022/01/30 16:15:52;;;;;;;0.55;0.32;;;;;;;;;;5048338;28;20416;-70
2022/01/30 16:18:22;;;;;;;0.47;0.30;;;;;;;;;;5015496;28;20057;-70
2022/01/30 16:20:53;;;;;;;0.45;0.30;;;;;;;;;;4999009;28;20056;-70
2022/01/30 16:23:24;;;;;;;0.35;0.35;;;;;;;;;;5008639;28;20054;-70
2022/01/30 16:25:55;;;;;;;1.67;0.30;;;;;;;;;;5008662;28;20073;-71
2022/01/30 16:28:26;;;;;;;17.75;0.82;;;;;;;;;;4950008;28;20504;-70
2022/01/30 16:30:56;;;;;;;1.98;0.20;;;;;;;;;;4961945;28;20058;-71
2022/01/30 16:33:27;;;;;;;0.50;0.30;;;;;;;;;;4956317;28;20054;-70
2022/01/30 16:35:57;;;;;;;0.20;0.20;;;;;;;;;;4989003;28;20054;-71
2022/01/30 16:38:27;;;;;;;0.20;0.20;;;;;;;;;;4988923;28;20055;-70
2022/01/30 16:40:57;;;;;;;0.22;0.22;;;;;;;;;;4988980;28;20050;-71
2022/01/30 16:43:40;;;;;;;1.00;0.60;;;;;;;;;;4988927;28;20078;-71
2022/01/30 16:46:33;;;;;;;1.15;0.30;;;;;;;;;;4941581;28;20050;-71
2022/01/30 16:49:03;;;;;;;2.00;0.30;;;;;;;;;;4994806;28;20046;-70